Yuanping, China
Current Conditions -  °F | °C
As of 5:30 AM on Thursday 27 Nov 2014 (Local Time) from ZBYN Reporting Station
Haze Haze  
Wind Chill: 30°   Ceiling: Unl
Heat Index: 30°   Visibility: 1.2mi
Dew Point: 27°   Wind: 2mph
Humidity: 86%   Direction: 350°N
Pressure: 30.03"   Gusts: NA
Location:  38.73°N, 112.72°E
Report Text: ZBYN 262130Z 35001MPS 2000 BR NSC M01/M03 Q1017 NOSIG
Loading
Personal Weather Stations






























Interactive Weather Map New forecast layout! Learn more

10-Day Weather Forecast

Advertisements
Track Severe Weather on mobile